Weston-Spr-Mare, United Kingdom
Current Conditions -  °F | °C
As of 10:20 AM on Saturday 22 Nov 2014 (Local Time) from EGGD Reporting Station
Scattered Clouds Scattered Clouds  
Wind Chill: 55°   Ceiling: Unl
Heat Index: 55°   Visibility: 6mi
Dew Point: 54°   Wind: 5mph
Humidity: 94%   Direction: 210°SSW
Pressure: 29.85"   Gusts: NA
Location:  51.33°N, 2.98°W
Report Text: EGGD 221020Z 21004KT 160V240 9999 SCT003 SCT015 13/12 Q1011
Loading
Personal Weather Stations






























Interactive Weather Map New forecast layout! Learn more

10-Day Weather Forecast

Advertisements
Track Severe Weather on mobile